createdAt,value
2019-06-20T00:00:37.055Z,88.17
2019-06-20T00:03:07.629Z,88.27
2019-06-20T00:05:38.229Z,90.57
2019-06-20T00:08:09.542Z,89.29
2019-06-20T00:10:39.813Z,87.25
2019-06-20T00:13:10.215Z,86.42
2019-06-20T00:15:41.127Z,86.91
2019-06-20T00:18:12.883Z,87.13
2019-06-20T00:20:43.195Z,86.48
2019-06-20T00:23:13.410Z,86.51
2019-06-20T00:25:46.601Z,86.71
2019-06-20T00:28:18.577Z,87.88
2019-06-20T00:30:49.768Z,90.46
2019-06-20T00:33:19.982Z,92.01
2019-06-20T00:35:52.420Z,89.82
2019-06-20T00:38:22.621Z,89.28
2019-06-20T00:40:52.840Z,90.90
2019-06-20T00:43:23.022Z,91.85
2019-06-20T00:45:53.196Z,94.31
2019-06-20T00:48:23.370Z,91.66
2019-06-20T00:50:53.539Z,93.27
2019-06-20T00:53:23.688Z,95.68
2019-06-20T00:55:53.932Z,93.74
2019-06-20T00:58:24.198Z,94.77
2019-06-20T01:00:54.391Z,93.54
2019-06-20T01:03:24.602Z,94.04
2019-06-20T01:05:54.761Z,90.91
2019-06-20T01:08:25.012Z,88.50
2019-06-20T01:10:55.232Z,88.81
2019-06-20T01:13:33.716Z,88.07
2019-06-20T01:15:57.429Z,86.99
2019-06-20T01:18:27.606Z,88.44
2019-06-20T01:20:57.952Z,89.07
2019-06-20T01:23:28.071Z,88.28
2019-06-20T01:25:58.269Z,89.57
2019-06-20T01:28:28.443Z,89.56
2019-06-20T01:30:58.633Z,89.64
2019-06-20T01:33:28.891Z,89.09
2019-06-20T01:35:59.109Z,89.47
2019-06-20T01:38:29.255Z,95.18
2019-06-20T01:40:59.425Z,93.29
2019-06-20T01:43:29.667Z,92.32
2019-06-20T01:45:59.916Z,91.99
2019-06-20T01:48:33.319Z,90.37
2019-06-20T01:51:04.725Z,89.57
2019-06-20T01:53:37.994Z,88.00
2019-06-20T01:56:08.265Z,86.83
2019-06-20T01:58:38.503Z,87.62
2019-06-20T02:01:10.144Z,89.66
2019-06-20T02:03:40.321Z,88.23
2019-06-20T02:06:10.539Z,86.98
2019-06-20T02:08:40.721Z,92.69
2019-06-20T02:11:10.858Z,88.76
2019-06-20T02:13:41.057Z,88.11
2019-06-20T02:16:11.268Z,87.67
2019-06-20T02:18:41.450Z,87.05
2019-06-20T02:21:11.599Z,89.48
2019-06-20T02:23:42.941Z,88.86
2019-06-20T02:26:13.090Z,88.01
2019-06-20T02:28:43.455Z,87.44
2019-06-20T02:31:13.615Z,89.55
2019-06-20T02:33:43.805Z,90.33
2019-06-20T02:36:13.991Z,89.41
2019-06-20T02:38:45.641Z,88.22
2019-06-20T02:41:17.889Z,87.55
2019-06-20T02:43:48.707Z,88.71
2019-06-20T02:46:18.908Z,88.17
2019-06-20T02:48:50.940Z,88.75
2019-06-20T02:51:24.336Z,88.60
2019-06-20T02:53:54.860Z,88.69
2019-06-20T02:56:25.287Z,88.90
2019-06-20T02:59:02.101Z,89.60
2019-06-20T03:01:35.459Z,89.52
2019-06-20T03:04:05.681Z,89.08
2019-06-20T03:06:37.152Z,88.60
2019-06-20T03:09:07.931Z,88.60
2019-06-20T03:11:38.073Z,88.22
2019-06-20T03:14:08.234Z,87.86
2019-06-20T03:16:39.473Z,89.93
2019-06-20T03:19:12.362Z,89.75
2019-06-20T03:21:43.586Z,88.53
2019-06-20T03:24:18.703Z,90.49
2019-06-20T03:26:48.937Z,92.48
2019-06-20T03:29:19.157Z,91.43
2019-06-20T03:31:52.829Z,92.26
2019-06-20T03:34:29.174Z,93.21
2019-06-20T03:37:03.297Z,92.70
2019-06-20T03:39:33.485Z,94.07
2019-06-20T03:42:05.939Z,93.50
2019-06-20T03:45:01.175Z,93.38
2019-06-20T03:47:17.854Z,89.94
2019-06-20T03:49:48.016Z,89.82
2019-06-20T03:52:25.228Z,91.49
2019-06-20T03:54:58.060Z,89.50
2019-06-20T03:57:31.406Z,87.93
2019-06-20T04:00:03.204Z,89.32
2019-06-20T04:02:33.747Z,86.38
2019-06-20T04:05:08.452Z,83.90
2019-06-20T04:07:44.480Z,84.56
2019-06-20T04:10:20.671Z,85.02
2019-06-20T04:12:50.837Z,85.60
2019-06-20T04:15:21.012Z,84.45
2019-06-20T04:17:53.225Z,85.14
2019-06-20T04:20:23.438Z,83.98
2019-06-20T04:22:59.218Z,86.26
2019-06-20T04:25:29.424Z,86.87
2019-06-20T04:27:59.626Z,86.07
2019-06-20T04:30:30.221Z,87.85
2019-06-20T04:33:02.494Z,86.47
2019-06-20T04:35:36.002Z,86.49
2019-06-20T04:38:08.038Z,86.64
2019-06-20T04:40:40.356Z,86.07
2019-06-20T04:43:11.177Z,85.26
2019-06-20T04:45:51.478Z,85.89
2019-06-20T04:48:24.750Z,86.88
2019-06-20T04:50:56.854Z,88.16
2019-06-20T04:53:27.044Z,90.84
2019-06-20T04:55:57.366Z,88.57
2019-06-20T04:58:28.163Z,88.51
2019-06-20T05:00:58.384Z,84.53
2019-06-20T05:03:29.016Z,84.87
2019-06-20T05:05:59.172Z,87.10
2019-06-20T05:08:29.357Z,87.16
2019-06-20T05:11:00.141Z,85.47
2019-06-20T05:13:30.400Z,86.37
2019-06-20T05:16:00.598Z,84.39
2019-06-20T05:18:30.792Z,85.22
2019-06-20T05:21:00.973Z,84.03
2019-06-20T05:23:31.095Z,86.17
2019-06-20T05:26:01.356Z,84.25
2019-06-20T05:28:32.018Z,80.68
2019-06-20T05:31:05.276Z,82.19
2019-06-20T05:33:40.654Z,80.27
2019-06-20T05:36:12.672Z,80.51
2019-06-20T05:38:42.864Z,81.96
2019-06-20T05:41:14.003Z,80.10
2019-06-20T05:43:44.144Z,77.45
2019-06-20T05:46:14.353Z,74.94
2019-06-20T05:48:44.585Z,73.77
2019-06-20T05:51:15.643Z,73.20
2019-06-20T05:53:45.948Z,74.76
2019-06-20T05:56:16.222Z,73.02
2019-06-20T05:58:46.857Z,73.46
2019-06-20T06:01:17.054Z,72.54
2019-06-20T06:03:47.213Z,72.68
2019-06-20T06:06:20.603Z,69.80
2019-06-20T06:08:51.857Z,68.22
2019-06-20T06:11:22.613Z,69.83
2019-06-20T06:13:53.382Z,70.82
2019-06-20T06:16:27.327Z,68.93
2019-06-20T06:18:58.167Z,70.28
2019-06-20T06:21:28.302Z,73.15
2019-06-20T06:23:58.479Z,72.63
2019-06-20T06:26:28.672Z,74.03
2019-06-20T06:28:58.877Z,72.34
2019-06-20T06:31:31.248Z,73.94
2019-06-20T06:34:02.373Z,73.67
2019-06-20T06:36:34.893Z,75.57
2019-06-20T06:39:13.139Z,73.73
2019-06-20T06:41:43.430Z,72.28
2019-06-20T06:44:15.463Z,72.92
2019-06-20T06:46:54.204Z,73.10
2019-06-20T06:49:20.979Z,74.63
2019-06-20T06:51:51.161Z,73.04
2019-06-20T06:54:21.568Z,73.10
2019-06-20T06:56:51.716Z,72.98
2019-06-20T06:59:21.932Z,75.77
2019-06-20T07:01:53.123Z,75.42
2019-06-20T07:04:23.263Z,75.00
2019-06-20T07:06:53.490Z,75.33
2019-06-20T07:09:23.703Z,72.91
2019-06-20T07:11:56.825Z,71.35
2019-06-20T07:14:26.977Z,70.88
2019-06-20T07:17:00.675Z,70.09
2019-06-20T07:19:29.036Z,66.69
2019-06-20T07:22:02.550Z,66.15
2019-06-20T07:24:32.752Z,66.93
2019-06-20T07:27:03.048Z,66.20
2019-06-20T07:29:33.176Z,64.97
2019-06-20T07:32:03.383Z,65.60
2019-06-20T07:34:33.595Z,66.80
2019-06-20T07:37:03.804Z,65.32
2019-06-20T07:39:33.973Z,66.07
2019-06-20T07:42:04.558Z,66.67
2019-06-20T07:44:34.780Z,64.52
2019-06-20T07:47:16.958Z,64.09
2019-06-20T07:49:41.782Z,62.35
2019-06-20T07:52:09.261Z,63.04
2019-06-20T07:54:39.506Z,62.80
2019-06-20T07:57:10.473Z,62.02
2019-06-20T07:59:42.857Z,62.87
2019-06-20T08:02:16.415Z,62.75
2019-06-20T08:04:46.613Z,61.54
2019-06-20T08:07:19.541Z,60.16
2019-06-20T08:09:50.079Z,61.80
2019-06-20T08:12:20.331Z,59.85
2019-06-20T08:14:50.560Z,59.48
2019-06-20T08:17:34.820Z,60.07
2019-06-20T08:19:52.787Z,59.87
2019-06-20T08:22:23.578Z,57.37
2019-06-20T08:24:54.946Z,57.91
2019-06-20T08:27:43.839Z,59.86
2019-06-20T08:30:16.504Z,59.70
2019-06-20T08:32:46.804Z,63.18
2019-06-20T08:35:24.114Z,57.38
2019-06-20T08:37:56.057Z,58.11
2019-06-20T08:40:27.572Z,58.63
2019-06-20T08:42:58.874Z,57.32
2019-06-20T08:45:34.655Z,57.86
2019-06-20T08:48:04.897Z,57.14
2019-06-20T08:50:40.175Z,55.67
2019-06-20T08:53:10.476Z,56.49
2019-06-20T08:55:40.658Z,55.31
2019-06-20T08:58:10.937Z,57.05
2019-06-20T09:00:41.424Z,57.42
2019-06-20T09:03:13.834Z,57.21
2019-06-20T09:05:44.022Z,57.49
2019-06-20T09:08:14.290Z,58.19
2019-06-20T09:10:44.665Z,59.38
2019-06-20T09:13:15.070Z,58.01
2019-06-20T09:15:45.318Z,55.95
2019-06-20T09:18:15.534Z,57.09
2019-06-20T09:20:45.936Z,56.80
2019-06-20T09:23:16.136Z,54.99
2019-06-20T09:25:46.367Z,56.12
2019-06-20T09:28:19.420Z,54.11
2019-06-20T09:30:50.665Z,55.13
2019-06-20T09:33:21.671Z,52.81
2019-06-20T09:35:53.881Z,53.03
2019-06-20T09:38:24.885Z,53.46
2019-06-20T09:40:55.144Z,52.91
2019-06-20T09:43:27.773Z,53.78
2019-06-20T09:45:58.441Z,53.02
2019-06-20T09:48:28.898Z,53.67
2019-06-20T09:50:59.198Z,53.61
2019-06-20T09:53:29.847Z,52.77
2019-06-20T09:56:00.193Z,52.74
2019-06-20T09:58:30.431Z,51.31
2019-06-20T10:01:00.780Z,50.58
2019-06-20T10:03:33.761Z,50.23
2019-06-20T10:06:13.245Z,48.87
2019-06-20T10:08:36.018Z,49.88
2019-06-20T10:11:06.292Z,49.30
2019-06-20T10:13:36.494Z,51.39
2019-06-20T10:16:07.668Z,53.28
2019-06-20T10:18:39.251Z,53.85
2019-06-20T10:21:09.573Z,53.08
2019-06-20T10:23:39.895Z,53.06
2019-06-20T10:26:10.606Z,52.91
2019-06-20T10:28:40.855Z,53.08
2019-06-20T10:31:11.155Z,52.46
2019-06-20T10:33:41.405Z,51.80
2019-06-20T10:36:14.351Z,50.81
2019-06-20T10:38:45.310Z,49.75
2019-06-20T10:41:16.709Z,51.69
2019-06-20T10:43:47.581Z,50.70
2019-06-20T10:46:17.826Z,52.44
2019-06-20T10:48:48.055Z,51.08
2019-06-20T10:51:52.246Z,51.09
2019-06-20T10:54:22.410Z,50.10
2019-06-20T10:56:52.868Z,48.76
2019-06-20T10:59:24.099Z,49.35
2019-06-20T11:01:54.302Z,49.52
2019-06-20T11:04:24.560Z,50.20
2019-06-20T11:06:54.723Z,50.49
2019-06-20T11:09:24.903Z,50.51
2019-06-20T11:11:55.124Z,48.38
2019-06-20T11:14:26.713Z,47.95
2019-06-20T11:16:56.952Z,47.25
2019-06-20T11:19:27.124Z,46.77
2019-06-20T11:21:57.345Z,46.41
2019-06-20T11:24:30.951Z,45.36
2019-06-20T11:27:01.151Z,44.26
2019-06-20T11:29:31.347Z,44.26
2019-06-20T11:32:01.607Z,43.51
2019-06-20T11:34:31.799Z,44.86
2019-06-20T11:37:01.982Z,44.96
2019-06-20T11:39:35.651Z,44.44
2019-06-20T11:42:06.061Z,45.62
2019-06-20T11:44:37.027Z,45.09
2019-06-20T11:47:07.291Z,46.98
2019-06-20T11:49:38.190Z,44.25
2019-06-20T11:52:08.348Z,45.29
2019-06-20T11:54:40.599Z,45.61
2019-06-20T11:57:10.802Z,45.88
2019-06-20T11:59:40.970Z,45.88
2019-06-20T12:02:11.181Z,46.18
2019-06-20T12:04:41.827Z,48.10
2019-06-20T12:07:13.757Z,48.10
2019-06-20T12:09:44.281Z,48.76
2019-06-20T12:12:14.504Z,49.89
2019-06-20T12:14:44.664Z,48.33
2019-06-20T12:17:15.002Z,47.63
2019-06-20T12:19:46.723Z,47.46
2019-06-20T12:22:16.961Z,47.32
2019-06-20T12:24:47.170Z,46.89
2019-06-20T12:27:17.728Z,45.89
2019-06-20T12:29:49.325Z,45.69
2019-06-20T12:32:21.732Z,44.32
2019-06-20T12:34:52.075Z,43.34
2019-06-20T12:37:22.330Z,44.32
2019-06-20T12:39:52.557Z,44.94
2019-06-20T12:42:22.927Z,45.45
2019-06-20T12:44:53.246Z,45.29
2019-06-20T12:47:23.541Z,46.00
2019-06-20T12:49:53.772Z,45.82
2019-06-20T12:52:24.650Z,45.17
2019-06-20T12:54:55.015Z,44.76
2019-06-20T12:57:26.262Z,44.32
2019-06-20T12:59:56.549Z,44.47
2019-06-20T13:02:26.868Z,44.75
2019-06-20T13:04:57.250Z,44.51
2019-06-20T13:07:27.573Z,43.86
2019-06-20T13:09:57.945Z,43.55
2019-06-20T13:12:28.145Z,44.56
2019-06-20T13:14:58.388Z,44.56
2019-06-20T13:17:28.612Z,45.72
2019-06-20T13:19:58.981Z,43.70
2019-06-20T13:22:29.235Z,43.70
2019-06-20T13:24:59.567Z,43.81
2019-06-20T13:27:30.110Z,43.81
2019-06-20T13:30:00.788Z,43.61
2019-06-20T13:32:31.087Z,44.20
2019-06-20T13:35:03.446Z,44.44
2019-06-20T13:37:33.681Z,43.02
2019-06-20T13:40:04.536Z,42.48
2019-06-20T13:42:34.766Z,42.62
2019-06-20T13:45:05.657Z,41.77
2019-06-20T13:47:35.997Z,41.25
2019-06-20T13:50:09.691Z,40.77
2019-06-20T13:52:43.050Z,40.08
2019-06-20T13:55:12.420Z,40.71
2019-06-20T13:57:45.346Z,40.71
2019-06-20T14:00:15.353Z,40.11
2019-06-20T14:02:47.045Z,40.72
2019-06-20T14:05:17.805Z,39.99
2019-06-20T14:07:53.292Z,39.57
2019-06-20T14:10:22.044Z,39.82
2019-06-20T14:12:54.542Z,38.58
2019-06-20T14:15:24.786Z,39.39
2019-06-20T14:17:55.938Z,38.77
2019-06-20T14:20:26.439Z,40.17
2019-06-20T14:22:57.367Z,39.00
2019-06-20T14:25:27.658Z,39.67
2019-06-20T14:27:59.639Z,39.80
2019-06-20T14:30:33.525Z,38.60
2019-06-20T14:33:06.028Z,38.96
2019-06-20T14:35:38.128Z,38.55
2019-06-20T14:38:12.337Z,38.20
2019-06-20T14:40:44.084Z,38.03
2019-06-20T14:43:14.512Z,38.13
2019-06-20T14:45:45.539Z,38.58
2019-06-20T14:48:17.085Z,37.84
2019-06-20T14:50:47.860Z,38.87
2019-06-20T14:53:21.856Z,39.43
2019-06-20T14:55:52.096Z,39.32
2019-06-20T14:58:24.106Z,38.37
2019-06-20T15:00:54.413Z,36.16
2019-06-20T15:03:24.719Z,37.09
2019-06-20T15:05:54.999Z,38.20
2019-06-20T15:08:25.302Z,37.60
2019-06-20T15:10:55.541Z,38.99
2019-06-20T15:13:25.773Z,39.02
2019-06-20T15:15:56.875Z,39.74
2019-06-20T15:18:27.139Z,41.30
2019-06-20T15:20:59.408Z,37.77
2019-06-20T15:23:29.575Z,35.18
2019-06-20T15:25:59.865Z,33.27
2019-06-20T15:28:30.243Z,32.57
2019-06-20T15:31:00.555Z,31.73
2019-06-20T15:33:30.794Z,32.37
2019-06-20T15:36:01.539Z,31.75
2019-06-20T15:38:31.989Z,33.57
2019-06-20T15:41:02.419Z,34.08
2019-06-20T15:43:35.362Z,35.87
2019-06-20T15:46:05.875Z,36.48
2019-06-20T15:48:36.223Z,36.26
2019-06-20T15:51:06.417Z,34.99
2019-06-20T15:53:36.631Z,36.03
2019-06-20T15:56:06.803Z,36.87
2019-06-20T15:58:37.033Z,38.05
2019-06-20T16:01:07.291Z,38.61
2019-06-20T16:03:39.385Z,38.90
2019-06-20T16:06:09.651Z,39.27
2019-06-20T16:08:39.989Z,36.94
2019-06-20T16:11:13.291Z,33.98
2019-06-20T16:13:43.512Z,33.19
2019-06-20T16:16:13.773Z,35.55
2019-06-20T16:18:43.948Z,35.84
2019-06-20T16:21:14.216Z,36.39
2019-06-20T16:23:44.505Z,36.70
2019-06-20T16:26:14.925Z,38.18
2019-06-20T16:28:45.238Z,39.90
2019-06-20T16:31:26.316Z,40.23
2019-06-20T16:33:47.421Z,41.03
2019-06-20T16:36:18.323Z,41.06
2019-06-20T16:38:49.784Z,41.08
2019-06-20T16:41:21.995Z,40.65
2019-06-20T16:43:52.322Z,40.86
2019-06-20T16:46:22.965Z,42.02
2019-06-20T16:48:53.285Z,40.82
2019-06-20T16:51:25.826Z,40.86
2019-06-20T16:53:59.830Z,40.52
2019-06-20T16:56:32.314Z,40.68
2019-06-20T16:59:06.005Z,41.41
2019-06-20T17:01:36.292Z,41.62
2019-06-20T17:04:06.856Z,42.37
2019-06-20T17:06:38.932Z,42.24
2019-06-20T17:09:09.803Z,42.02
2019-06-20T17:11:40.978Z,42.05
2019-06-20T17:14:11.445Z,42.67
2019-06-20T17:16:41.705Z,43.23
2019-06-20T17:19:12.217Z,43.46
2019-06-20T17:21:42.389Z,43.88
2019-06-20T17:24:13.824Z,43.95
2019-06-20T17:26:45.912Z,44.33
2019-06-20T17:29:16.188Z,45.30
2019-06-20T17:31:48.139Z,45.52
2019-06-20T17:34:18.470Z,45.81
2019-06-20T17:36:48.822Z,46.47
2019-06-20T17:39:19.088Z,46.37
2019-06-20T17:41:55.282Z,46.28
2019-06-20T17:44:26.707Z,46.13
2019-06-20T17:46:58.081Z,45.78
2019-06-20T17:49:28.510Z,45.65
2019-06-20T17:51:58.779Z,45.47
2019-06-20T17:54:32.683Z,45.58
2019-06-20T17:57:05.053Z,45.56
2019-06-20T17:59:35.292Z,46.21
2019-06-20T18:02:05.522Z,46.20
2019-06-20T18:04:36.434Z,46.05
2019-06-20T18:07:06.704Z,46.57
2019-06-20T18:09:37.003Z,46.44
2019-06-20T18:12:10.079Z,46.85
2019-06-20T18:14:41.280Z,46.88
2019-06-20T18:17:11.568Z,46.93
2019-06-20T18:19:44.078Z,47.54
2019-06-20T18:22:17.040Z,47.80
2019-06-20T18:24:47.470Z,50.70
2019-06-20T18:27:18.075Z,60.64
2019-06-20T18:29:52.477Z,76.47
2019-06-20T18:32:49.967Z,76.47
2019-06-20T18:38:07.520Z,76.47
2019-06-20T18:42:09.018Z,100.00
2019-06-20T18:57:20.644Z,76.47
2019-06-20T19:20:08.291Z,76.47
2019-06-20T19:44:21.087Z,100.00
2019-06-20T19:46:52.971Z,100.00
2019-06-20T19:49:25.885Z,100.00
2019-06-20T19:51:59.061Z,100.00
2019-06-20T19:54:30.976Z,100.00
2019-06-20T19:57:04.197Z,76.47
2019-06-20T20:01:25.349Z,100.00
2019-06-20T20:03:56.045Z,100.00
2019-06-20T20:06:27.233Z,76.47
2019-06-20T20:09:00.818Z,90.99
2019-06-20T20:11:32.763Z,88.34
2019-06-20T20:14:03.077Z,88.50
2019-06-20T20:16:33.607Z,87.70
2019-06-20T20:19:04.421Z,90.67
2019-06-20T20:21:34.944Z,91.70
2019-06-20T20:24:05.365Z,92.65
2019-06-20T20:26:38.266Z,92.90
2019-06-20T20:29:49.343Z,92.28
2019-06-20T20:32:11.891Z,93.31
2019-06-20T20:34:42.333Z,88.43
2019-06-20T20:37:12.576Z,88.23
2019-06-20T20:39:45.135Z,85.51
2019-06-20T20:42:19.102Z,84.46
2019-06-20T20:44:49.697Z,84.80
2019-06-20T20:47:19.929Z,84.88
2019-06-20T20:49:50.136Z,81.31
2019-06-20T20:52:23.873Z,82.45
2019-06-20T20:54:55.428Z,82.85
2019-06-20T20:57:28.086Z,81.60
2019-06-20T21:00:01.802Z,81.23
2019-06-20T21:02:35.610Z,80.14
2019-06-20T21:05:08.679Z,77.88
2019-06-20T21:07:39.316Z,80.47
2019-06-20T21:10:09.710Z,78.63
2019-06-20T21:12:41.074Z,79.86
2019-06-20T21:15:13.520Z,77.53
2019-06-20T21:17:46.216Z,78.13
2019-06-20T21:20:16.783Z,76.74
2019-06-20T21:22:47.021Z,76.42
2019-06-20T21:25:17.194Z,77.75
2019-06-20T21:27:47.273Z,77.38
2019-06-20T21:30:17.928Z,76.30
2019-06-20T21:32:48.495Z,77.27
2019-06-20T21:35:20.251Z,77.75
2019-06-20T21:37:51.710Z,77.38
2019-06-20T21:40:21.894Z,79.90
2019-06-20T21:42:53.192Z,80.86
2019-06-20T21:45:24.087Z,79.96
2019-06-20T21:47:54.485Z,79.71
2019-06-20T21:50:24.910Z,79.86
2019-06-20T21:52:55.198Z,80.19
2019-06-20T21:55:28.639Z,81.73
2019-06-20T21:57:58.933Z,81.12
2019-06-20T22:00:38.446Z,79.27
2019-06-20T22:03:10.952Z,82.12
2019-06-20T22:05:43.643Z,82.30
2019-06-20T22:08:15.009Z,80.28
2019-06-20T22:10:47.445Z,81.57
2019-06-20T22:13:17.644Z,81.19
2019-06-20T22:15:48.040Z,78.05
2019-06-20T22:18:18.273Z,78.55
2019-06-20T22:20:48.500Z,77.92
2019-06-20T22:23:18.867Z,77.85
2019-06-20T22:25:49.188Z,76.94
2019-06-20T22:28:19.366Z,77.07
2019-06-20T22:30:53.679Z,77.13
2019-06-20T22:33:23.986Z,77.93
2019-06-20T22:35:54.250Z,77.10
2019-06-20T22:38:24.455Z,77.33
2019-06-20T22:40:54.800Z,76.73
2019-06-20T22:43:25.048Z,76.26
2019-06-20T22:45:55.246Z,76.04
2019-06-20T22:48:31.183Z,77.09
2019-06-20T22:51:01.562Z,75.77
2019-06-20T22:53:31.740Z,75.98
2019-06-20T22:56:02.253Z,76.23
2019-06-20T22:58:32.437Z,76.48
2019-06-20T23:01:02.632Z,76.01
2019-06-20T23:03:32.822Z,76.98
2019-06-20T23:06:03.114Z,76.87
2019-06-20T23:08:33.297Z,77.24
2019-06-20T23:11:06.862Z,78.23
2019-06-20T23:13:39.842Z,77.83
2019-06-20T23:16:10.082Z,77.87
2019-06-20T23:18:40.239Z,78.01
2019-06-20T23:21:10.442Z,78.48
2019-06-20T23:23:40.607Z,78.10
2019-06-20T23:26:14.870Z,77.60
2019-06-20T23:28:46.888Z,78.47
2019-06-20T23:31:17.118Z,78.25
2019-06-20T23:33:47.304Z,78.60
2019-06-20T23:36:17.522Z,78.52
2019-06-20T23:38:49.607Z,78.91
2019-06-20T23:41:19.844Z,78.29
2019-06-20T23:43:52.762Z,78.59
2019-06-20T23:46:22.922Z,77.70
2019-06-20T23:48:53.077Z,78.29
2019-06-20T23:51:28.732Z,79.26
2019-06-20T23:54:02.273Z,78.65
2019-06-20T23:56:32.652Z,78.72
2019-06-20T23:59:02.847Z,78.95
